sensor_id;sensor_type;location;lat;lon;timestamp;temperature;humidity
41557;DHT22;27720;51.992;5.890;2023-06-04T00:00:32;17.80;58.50
41557;DHT22;27720;51.992;5.890;2023-06-04T00:02:57;17.80;58.60
41557;DHT22;27720;51.992;5.890;2023-06-04T00:05:23;17.70;58.70
41557;DHT22;27720;51.992;5.890;2023-06-04T00:07:51;17.70;58.80
41557;DHT22;27720;51.992;5.890;2023-06-04T00:10:17;17.60;58.90
41557;DHT22;27720;51.992;5.890;2023-06-04T00:12:43;17.60;59.00
41557;DHT22;27720;51.992;5.890;2023-06-04T00:15:09;17.60;59.10
41557;DHT22;27720;51.992;5.890;2023-06-04T00:17:35;17.60;59.10
41557;DHT22;27720;51.992;5.890;2023-06-04T00:20:01;17.60;59.10
41557;DHT22;27720;51.992;5.890;2023-06-04T00:22:27;17.60;59.10
41557;DHT22;27720;51.992;5.890;2023-06-04T00:24:53;17.50;59.10
41557;DHT22;27720;51.992;5.890;2023-06-04T00:27:20;17.50;59.10
41557;DHT22;27720;51.992;5.890;2023-06-04T00:29:46;17.50;59.20
41557;DHT22;27720;51.992;5.890;2023-06-04T00:32:12;17.50;59.30
41557;DHT22;27720;51.992;5.890;2023-06-04T00:34:39;17.40;59.40
41557;DHT22;27720;51.992;5.890;2023-06-04T00:37:05;17.40;59.40
41557;DHT22;27720;51.992;5.890;2023-06-04T00:39:32;17.30;59.50
41557;DHT22;27720;51.992;5.890;2023-06-04T00:42:00;17.20;59.60
41557;DHT22;27720;51.992;5.890;2023-06-04T00:44:26;17.20;59.70
41557;DHT22;27720;51.992;5.890;2023-06-04T00:46:52;17.20;59.80
41557;DHT22;27720;51.992;5.890;2023-06-04T00:49:19;17.10;59.90
41557;DHT22;27720;51.992;5.890;2023-06-04T00:51:45;17.00;59.90
41557;DHT22;27720;51.992;5.890;2023-06-04T00:54:12;17.00;60.00
41557;DHT22;27720;51.992;5.890;2023-06-04T00:56:38;17.00;60.10
41557;DHT22;27720;51.992;5.890;2023-06-04T00:59:05;17.00;60.20
41557;DHT22;27720;51.992;5.890;2023-06-04T01:04:26;16.90;60.30
41557;DHT22;27720;51.992;5.890;2023-06-04T01:06:56;16.80;60.40
41557;DHT22;27720;51.992;5.890;2023-06-04T01:09:26;16.70;60.50
41557;DHT22;27720;51.992;5.890;2023-06-04T01:11:52;16.70;60.60
41557;DHT22;27720;51.992;5.890;2023-06-04T01:14:18;16.60;60.70
41557;DHT22;27720;51.992;5.890;2023-06-04T01:16:58;16.50;60.70
41557;DHT22;27720;51.992;5.890;2023-06-04T01:25:32;16.40;61.00
41557;DHT22;27720;51.992;5.890;2023-06-04T01:28:02;16.30;61.10
41557;DHT22;27720;51.992;5.890;2023-06-04T01:30:31;16.40;61.20
41557;DHT22;27720;51.992;5.890;2023-06-04T01:32:59;16.40;61.20
41557;DHT22;27720;51.992;5.890;2023-06-04T01:35:26;16.40;61.20
41557;DHT22;27720;51.992;5.890;2023-06-04T01:37:53;16.30;61.10
41557;DHT22;27720;51.992;5.890;2023-06-04T01:40:20;16.30;61.20
41557;DHT22;27720;51.992;5.890;2023-06-04T01:42:46;16.30;61.20
41557;DHT22;27720;51.992;5.890;2023-06-04T01:45:12;16.20;61.20
41557;DHT22;27720;51.992;5.890;2023-06-04T01:47:37;16.20;61.90
41557;DHT22;27720;51.992;5.890;2023-06-04T01:50:05;16.20;61.10
41557;DHT22;27720;51.992;5.890;2023-06-04T01:52:38;16.20;61.20
41557;DHT22;27720;51.992;5.890;2023-06-04T01:55:05;16.20;61.20
41557;DHT22;27720;51.992;5.890;2023-06-04T01:57:36;16.00;61.20
41557;DHT22;27720;51.992;5.890;2023-06-04T02:00:05;16.00;61.60
41557;DHT22;27720;51.992;5.890;2023-06-04T02:02:47;16.00;61.50
41557;DHT22;27720;51.992;5.890;2023-06-04T02:05:16;15.90;61.50
41557;DHT22;27720;51.992;5.890;2023-06-04T02:07:44;15.90;62.30
41557;DHT22;27720;51.992;5.890;2023-06-04T02:10:12;15.90;61.70
41557;DHT22;27720;51.992;5.890;2023-06-04T02:12:39;15.80;61.80
41557;DHT22;27720;51.992;5.890;2023-06-04T02:15:11;15.80;61.90
41557;DHT22;27720;51.992;5.890;2023-06-04T02:17:36;15.80;61.90
41557;DHT22;27720;51.992;5.890;2023-06-04T02:20:14;15.70;61.90
41557;DHT22;27720;51.992;5.890;2023-06-04T02:22:40;15.80;61.90
41557;DHT22;27720;51.992;5.890;2023-06-04T02:25:06;15.70;62.00
41557;DHT22;27720;51.992;5.890;2023-06-04T02:27:34;15.70;62.10
41557;DHT22;27720;51.992;5.890;2023-06-04T02:30:01;15.70;62.20
41557;DHT22;27720;51.992;5.890;2023-06-04T02:32:27;15.70;62.30
41557;DHT22;27720;51.992;5.890;2023-06-04T02:34:57;15.60;62.40
41557;DHT22;27720;51.992;5.890;2023-06-04T02:37:25;15.40;62.50
41557;DHT22;27720;51.992;5.890;2023-06-04T02:39:51;15.40;62.90
41557;DHT22;27720;51.992;5.890;2023-06-04T02:42:17;15.40;62.90
41557;DHT22;27720;51.992;5.890;2023-06-04T02:44:42;15.50;62.80
41557;DHT22;27720;51.992;5.890;2023-06-04T02:47:08;15.50;62.70
41557;DHT22;27720;51.992;5.890;2023-06-04T02:49:34;15.50;63.40
41557;DHT22;27720;51.992;5.890;2023-06-04T02:51:59;15.50;62.70
41557;DHT22;27720;51.992;5.890;2023-06-04T02:54:25;15.40;62.70
41557;DHT22;27720;51.992;5.890;2023-06-04T02:56:51;15.40;62.90
41557;DHT22;27720;51.992;5.890;2023-06-04T02:59:17;15.40;63.10
41557;DHT22;27720;51.992;5.890;2023-06-04T03:01:43;15.30;63.30
41557;DHT22;27720;51.992;5.890;2023-06-04T03:04:10;15.20;63.40
41557;DHT22;27720;51.992;5.890;2023-06-04T03:06:44;15.20;63.50
41557;DHT22;27720;51.992;5.890;2023-06-04T03:09:11;15.10;63.60
41557;DHT22;27720;51.992;5.890;2023-06-04T03:11:38;15.10;63.70
41557;DHT22;27720;51.992;5.890;2023-06-04T03:14:05;15.10;63.80
41557;DHT22;27720;51.992;5.890;2023-06-04T03:16:31;15.10;63.80
41557;DHT22;27720;51.992;5.890;2023-06-04T03:18:57;15.10;63.80
41557;DHT22;27720;51.992;5.890;2023-06-04T03:21:23;15.00;63.90
41557;DHT22;27720;51.992;5.890;2023-06-04T03:23:51;15.00;64.10
41557;DHT22;27720;51.992;5.890;2023-06-04T03:26:17;15.00;64.30
41557;DHT22;27720;51.992;5.890;2023-06-04T03:28:42;15.00;64.30
41557;DHT22;27720;51.992;5.890;2023-06-04T03:31:11;14.90;64.30
41557;DHT22;27720;51.992;5.890;2023-06-04T03:33:38;14.90;64.40
41557;DHT22;27720;51.992;5.890;2023-06-04T03:36:04;14.90;64.60
41557;DHT22;27720;51.992;5.890;2023-06-04T03:38:35;14.90;64.70
41557;DHT22;27720;51.992;5.890;2023-06-04T03:41:00;14.90;64.80
41557;DHT22;27720;51.992;5.890;2023-06-04T03:43:26;14.80;64.90
41557;DHT22;27720;51.992;5.890;2023-06-04T03:45:59;14.70;65.10
41557;DHT22;27720;51.992;5.890;2023-06-04T03:48:25;14.70;65.30
41557;DHT22;27720;51.992;5.890;2023-06-04T03:50:52;14.70;65.40
41557;DHT22;27720;51.992;5.890;2023-06-04T03:53:17;14.70;65.50
41557;DHT22;27720;51.992;5.890;2023-06-04T03:55:43;14.70;65.50
41557;DHT22;27720;51.992;5.890;2023-06-04T03:58:09;14.70;65.60
41557;DHT22;27720;51.992;5.890;2023-06-04T04:00:43;14.70;65.80
41557;DHT22;27720;51.992;5.890;2023-06-04T04:03:09;14.60;65.90
41557;DHT22;27720;51.992;5.890;2023-06-04T04:05:36;14.60;66.10
41557;DHT22;27720;51.992;5.890;2023-06-04T04:08:03;14.60;66.20
41557;DHT22;27720;51.992;5.890;2023-06-04T04:10:32;14.60;66.30
41557;DHT22;27720;51.992;5.890;2023-06-04T04:12:57;14.50;66.40
41557;DHT22;27720;51.992;5.890;2023-06-04T04:15:25;14.50;66.60
41557;DHT22;27720;51.992;5.890;2023-06-04T04:17:52;14.50;66.70
41557;DHT22;27720;51.992;5.890;2023-06-04T04:20:18;14.50;66.90
41557;DHT22;27720;51.992;5.890;2023-06-04T04:22:50;14.40;67.10
41557;DHT22;27720;51.992;5.890;2023-06-04T04:25:16;14.40;67.30
41557;DHT22;27720;51.992;5.890;2023-06-04T04:27:42;14.40;67.30
41557;DHT22;27720;51.992;5.890;2023-06-04T04:30:11;14.40;67.40
41557;DHT22;27720;51.992;5.890;2023-06-04T04:32:38;14.40;67.60
41557;DHT22;27720;51.992;5.890;2023-06-04T04:35:07;14.40;67.80
41557;DHT22;27720;51.992;5.890;2023-06-04T04:37:37;14.40;68.00
41557;DHT22;27720;51.992;5.890;2023-06-04T04:40:05;14.40;68.10
41557;DHT22;27720;51.992;5.890;2023-06-04T04:42:33;14.30;68.10
41557;DHT22;27720;51.992;5.890;2023-06-04T04:45:01;14.40;68.10
41557;DHT22;27720;51.992;5.890;2023-06-04T04:47:28;14.50;68.10
41557;DHT22;27720;51.992;5.890;2023-06-04T04:49:54;14.50;68.70
41557;DHT22;27720;51.992;5.890;2023-06-04T04:52:19;14.40;68.40
41557;DHT22;27720;51.992;5.890;2023-06-04T04:54:46;14.40;68.50
41557;DHT22;27720;51.992;5.890;2023-06-04T04:57:12;14.50;68.70
41557;DHT22;27720;51.992;5.890;2023-06-04T04:59:39;14.50;68.80
41557;DHT22;27720;51.992;5.890;2023-06-04T05:02:08;14.50;68.80
41557;DHT22;27720;51.992;5.890;2023-06-04T05:04:33;14.50;68.80
41557;DHT22;27720;51.992;5.890;2023-06-04T05:06:59;14.60;69.00
41557;DHT22;27720;51.992;5.890;2023-06-04T05:09:25;14.60;69.10
41557;DHT22;27720;51.992;5.890;2023-06-04T05:11:51;14.60;69.10
41557;DHT22;27720;51.992;5.890;2023-06-04T05:14:17;14.60;69.30
41557;DHT22;27720;51.992;5.890;2023-06-04T05:16:43;14.70;69.50
41557;DHT22;27720;51.992;5.890;2023-06-04T05:19:11;14.70;69.50
41557;DHT22;27720;51.992;5.890;2023-06-04T05:21:39;14.70;69.50
41557;DHT22;27720;51.992;5.890;2023-06-04T05:24:06;14.70;69.50
41557;DHT22;27720;51.992;5.890;2023-06-04T05:26:36;14.80;69.40
41557;DHT22;27720;51.992;5.890;2023-06-04T05:29:09;14.90;69.40
41557;DHT22;27720;51.992;5.890;2023-06-04T05:31:38;15.00;69.40
41557;DHT22;27720;51.992;5.890;2023-06-04T05:34:06;15.00;69.30
41557;DHT22;27720;51.992;5.890;2023-06-04T05:36:34;15.10;69.30
41557;DHT22;27720;51.992;5.890;2023-06-04T05:39:02;15.20;69.30
41557;DHT22;27720;51.992;5.890;2023-06-04T05:41:40;15.20;69.30
41557;DHT22;27720;51.992;5.890;2023-06-04T05:44:07;15.30;69.30
41557;DHT22;27720;51.992;5.890;2023-06-04T05:46:33;15.40;69.30
41557;DHT22;27720;51.992;5.890;2023-06-04T05:48:59;15.40;70.00
41557;DHT22;27720;51.992;5.890;2023-06-04T05:51:24;15.50;69.30
41557;DHT22;27720;51.992;5.890;2023-06-04T05:53:50;15.60;69.30
41557;DHT22;27720;51.992;5.890;2023-06-04T05:56:17;15.60;69.20
41557;DHT22;27720;51.992;5.890;2023-06-04T05:58:44;15.70;69.10
41557;DHT22;27720;51.992;5.890;2023-06-04T06:01:11;15.90;69.00
41557;DHT22;27720;51.992;5.890;2023-06-04T06:03:37;15.90;69.00
41557;DHT22;27720;51.992;5.890;2023-06-04T06:06:02;16.00;68.80
41557;DHT22;27720;51.992;5.890;2023-06-04T06:08:28;16.10;68.70
41557;DHT22;27720;51.992;5.890;2023-06-04T06:10:54;16.20;68.70
41557;DHT22;27720;51.992;5.890;2023-06-04T06:13:21;16.30;68.70
41557;DHT22;27720;51.992;5.890;2023-06-04T06:15:47;16.30;68.60
41557;DHT22;27720;51.992;5.890;2023-06-04T06:18:16;16.30;68.40
41557;DHT22;27720;51.992;5.890;2023-06-04T06:20:42;16.50;68.50
41557;DHT22;27720;51.992;5.890;2023-06-04T06:23:08;16.60;68.40
41557;DHT22;27720;51.992;5.890;2023-06-04T06:25:37;16.60;68.20
41557;DHT22;27720;51.992;5.890;2023-06-04T06:28:11;16.80;68.20
41557;DHT22;27720;51.992;5.890;2023-06-04T06:30:37;16.90;68.10
41557;DHT22;27720;51.992;5.890;2023-06-04T06:33:03;17.10;67.90
41557;DHT22;27720;51.992;5.890;2023-06-04T06:35:28;17.20;67.60
41557;DHT22;27720;51.992;5.890;2023-06-04T06:37:54;17.30;67.50
41557;DHT22;27720;51.992;5.890;2023-06-04T06:40:20;17.40;67.40
41557;DHT22;27720;51.992;5.890;2023-06-04T06:42:49;17.50;67.10
41557;DHT22;27720;51.992;5.890;2023-06-04T06:45:19;17.70;66.90
41557;DHT22;27720;51.992;5.890;2023-06-04T06:47:45;17.80;66.80
41557;DHT22;27720;51.992;5.890;2023-06-04T06:50:11;17.90;66.50
41557;DHT22;27720;51.992;5.890;2023-06-04T06:52:38;18.00;66.40
41557;DHT22;27720;51.992;5.890;2023-06-04T06:55:04;18.10;66.10
41557;DHT22;27720;51.992;5.890;2023-06-04T06:57:30;18.20;65.90
41557;DHT22;27720;51.992;5.890;2023-06-04T06:59:56;18.40;65.80
41557;DHT22;27720;51.992;5.890;2023-06-04T07:02:22;18.50;65.40
41557;DHT22;27720;51.992;5.890;2023-06-04T07:04:48;18.60;65.20
41557;DHT22;27720;51.992;5.890;2023-06-04T07:07:14;18.70;64.80
41557;DHT22;27720;51.992;5.890;2023-06-04T07:09:39;18.90;64.60
41557;DHT22;27720;51.992;5.890;2023-06-04T07:12:06;18.90;64.30
41557;DHT22;27720;51.992;5.890;2023-06-04T07:14:32;19.10;64.10
41557;DHT22;27720;51.992;5.890;2023-06-04T07:17:06;19.20;63.90
41557;DHT22;27720;51.992;5.890;2023-06-04T07:19:33;19.40;63.40
41557;DHT22;27720;51.992;5.890;2023-06-04T07:21:58;19.60;63.30
41557;DHT22;27720;51.992;5.890;2023-06-04T07:24:24;19.70;63.00
41557;DHT22;27720;51.992;5.890;2023-06-04T07:26:50;19.80;62.50
41557;DHT22;27720;51.992;5.890;2023-06-04T07:29:16;20.00;62.20
41557;DHT22;27720;51.992;5.890;2023-06-04T07:31:42;20.10;61.90
41557;DHT22;27720;51.992;5.890;2023-06-04T07:34:07;20.30;61.70
41557;DHT22;27720;51.992;5.890;2023-06-04T07:36:33;20.40;61.40
41557;DHT22;27720;51.992;5.890;2023-06-04T07:38:59;20.60;61.20
41557;DHT22;27720;51.992;5.890;2023-06-04T07:41:25;20.70;60.90
41557;DHT22;27720;51.992;5.890;2023-06-04T07:43:54;20.80;60.40
41557;DHT22;27720;51.992;5.890;2023-06-04T07:46:19;20.90;60.10
41557;DHT22;27720;51.992;5.890;2023-06-04T07:48:45;21.10;59.70
41557;DHT22;27720;51.992;5.890;2023-06-04T07:51:13;21.20;59.10
41557;DHT22;27720;51.992;5.890;2023-06-04T07:53:39;21.40;59.00
41557;DHT22;27720;51.992;5.890;2023-06-04T07:56:05;21.50;58.70
41557;DHT22;27720;51.992;5.890;2023-06-04T07:58:31;21.60;58.50
41557;DHT22;27720;51.992;5.890;2023-06-04T08:00:57;21.70;58.00
41557;DHT22;27720;51.992;5.890;2023-06-04T08:03:23;21.90;57.80
41557;DHT22;27720;51.992;5.890;2023-06-04T08:05:49;22.00;57.50
41557;DHT22;27720;51.992;5.890;2023-06-04T08:08:15;22.20;57.20
41557;DHT22;27720;51.992;5.890;2023-06-04T08:10:42;22.40;57.10
41557;DHT22;27720;51.992;5.890;2023-06-04T08:13:08;22.50;56.90
41557;DHT22;27720;51.992;5.890;2023-06-04T08:15:37;22.70;56.60
41557;DHT22;27720;51.992;5.890;2023-06-04T08:18:03;22.90;56.30
41557;DHT22;27720;51.992;5.890;2023-06-04T08:20:29;23.10;55.80
41557;DHT22;27720;51.992;5.890;2023-06-04T08:22:55;23.30;55.10
41557;DHT22;27720;51.992;5.890;2023-06-04T08:25:20;23.40;54.40
41557;DHT22;27720;51.992;5.890;2023-06-04T08:27:47;23.50;53.80
41557;DHT22;27720;51.992;5.890;2023-06-04T08:30:13;23.60;53.60
41557;DHT22;27720;51.992;5.890;2023-06-04T08:32:38;23.80;53.40
41557;DHT22;27720;51.992;5.890;2023-06-04T08:35:07;23.90;53.10
41557;DHT22;27720;51.992;5.890;2023-06-04T08:37:33;24.10;52.90
41557;DHT22;27720;51.992;5.890;2023-06-04T08:39:58;24.30;52.70
41557;DHT22;27720;51.992;5.890;2023-06-04T08:42:31;24.40;52.50
41557;DHT22;27720;51.992;5.890;2023-06-04T08:45:03;24.60;52.30
41557;DHT22;27720;51.992;5.890;2023-06-04T08:47:29;24.70;52.10
41557;DHT22;27720;51.992;5.890;2023-06-04T08:49:59;24.80;51.40
41557;DHT22;27720;51.992;5.890;2023-06-04T08:52:29;24.90;51.00
41557;DHT22;27720;51.992;5.890;2023-06-04T08:54:55;25.10;50.60
41557;DHT22;27720;51.992;5.890;2023-06-04T08:57:21;25.20;50.40
41557;DHT22;27720;51.992;5.890;2023-06-04T08:59:47;25.30;49.80
41557;DHT22;27720;51.992;5.890;2023-06-04T09:02:17;25.40;49.30
41557;DHT22;27720;51.992;5.890;2023-06-04T09:04:43;25.50;49.70
41557;DHT22;27720;51.992;5.890;2023-06-04T09:07:12;25.60;48.80
41557;DHT22;27720;51.992;5.890;2023-06-04T09:09:44;25.70;48.10
41557;DHT22;27720;51.992;5.890;2023-06-04T09:12:14;25.80;47.30
41557;DHT22;27720;51.992;5.890;2023-06-04T09:14:42;25.80;46.80
41557;DHT22;27720;51.992;5.890;2023-06-04T09:17:09;26.00;46.80
41557;DHT22;27720;51.992;5.890;2023-06-04T09:19:34;26.10;46.80
41557;DHT22;27720;51.992;5.890;2023-06-04T09:22:00;26.30;47.30
41557;DHT22;27720;51.992;5.890;2023-06-04T09:24:41;26.40;46.60
41557;DHT22;27720;51.992;5.890;2023-06-04T09:27:17;26.60;46.70
41557;DHT22;27720;51.992;5.890;2023-06-04T09:29:53;26.70;46.40
41557;DHT22;27720;51.992;5.890;2023-06-04T09:32:27;26.80;45.30
41557;DHT22;27720;51.992;5.890;2023-06-04T09:35:36;26.80;44.20
41557;DHT22;27720;51.992;5.890;2023-06-04T09:37:53;26.90;44.30
41557;DHT22;27720;51.992;5.890;2023-06-04T09:40:19;26.80;43.70
41557;DHT22;27720;51.992;5.890;2023-06-04T09:42:47;27.10;43.90
41557;DHT22;27720;51.992;5.890;2023-06-04T09:45:36;27.30;43.60
41557;DHT22;27720;51.992;5.890;2023-06-04T09:48:04;27.50;43.60
41557;DHT22;27720;51.992;5.890;2023-06-04T09:50:35;27.70;43.40
41557;DHT22;27720;51.992;5.890;2023-06-04T09:53:20;27.90;42.80
41557;DHT22;27720;51.992;5.890;2023-06-04T09:55:59;28.00;42.60
41557;DHT22;27720;51.992;5.890;2023-06-04T09:58:34;28.10;42.30
41557;DHT22;27720;51.992;5.890;2023-06-04T10:01:02;28.20;42.50
41557;DHT22;27720;51.992;5.890;2023-06-04T10:03:34;28.40;42.30
41557;DHT22;27720;51.992;5.890;2023-06-04T10:06:05;28.60;42.10
41557;DHT22;27720;51.992;5.890;2023-06-04T10:08:32;28.80;41.70
41557;DHT22;27720;51.992;5.890;2023-06-04T10:11:04;28.80;41.20
41557;DHT22;27720;51.992;5.890;2023-06-04T10:13:56;28.90;41.10
41557;DHT22;27720;51.992;5.890;2023-06-04T10:16:27;28.90;40.50
41557;DHT22;27720;51.992;5.890;2023-06-04T10:19:07;28.80;40.30
41557;DHT22;27720;51.992;5.890;2023-06-04T10:21:34;29.00;40.40
41557;DHT22;27720;51.992;5.890;2023-06-04T10:24:02;29.10;40.20
41557;DHT22;27720;51.992;5.890;2023-06-04T10:26:27;29.10;40.00
41557;DHT22;27720;51.992;5.890;2023-06-04T10:28:53;29.20;40.20
41557;DHT22;27720;51.992;5.890;2023-06-04T10:31:22;29.30;40.10
41557;DHT22;27720;51.992;5.890;2023-06-04T10:33:48;29.40;40.00
41557;DHT22;27720;51.992;5.890;2023-06-04T10:36:18;29.50;40.00
41557;DHT22;27720;51.992;5.890;2023-06-04T10:38:46;29.60;39.70
41557;DHT22;27720;51.992;5.890;2023-06-04T10:41:16;29.60;39.50
41557;DHT22;27720;51.992;5.890;2023-06-04T10:43:45;29.70;39.40
41557;DHT22;27720;51.992;5.890;2023-06-04T10:46:19;29.80;39.30
41557;DHT22;27720;51.992;5.890;2023-06-04T10:48:50;29.80;39.40
41557;DHT22;27720;51.992;5.890;2023-06-04T10:54:23;30.00;39.40
41557;DHT22;27720;51.992;5.890;2023-06-04T10:56:52;30.00;39.40
41557;DHT22;27720;51.992;5.890;2023-06-04T10:59:19;30.00;39.20
41557;DHT22;27720;51.992;5.890;2023-06-04T11:01:45;30.10;39.50
41557;DHT22;27720;51.992;5.890;2023-06-04T11:04:19;30.00;39.20
41557;DHT22;27720;51.992;5.890;2023-06-04T11:06:46;30.10;39.80
41557;DHT22;27720;51.992;5.890;2023-06-04T11:09:13;30.10;39.60
41557;DHT22;27720;51.992;5.890;2023-06-04T11:11:41;30.10;39.20
41557;DHT22;27720;51.992;5.890;2023-06-04T11:14:11;30.20;38.80
41557;DHT22;27720;51.992;5.890;2023-06-04T11:16:41;30.30;38.70
41557;DHT22;27720;51.992;5.890;2023-06-04T11:19:07;30.40;38.90
41557;DHT22;27720;51.992;5.890;2023-06-04T11:21:36;30.40;38.60
41557;DHT22;27720;51.992;5.890;2023-06-04T11:24:04;30.60;38.80
41557;DHT22;27720;51.992;5.890;2023-06-04T11:26:34;30.70;38.80
41557;DHT22;27720;51.992;5.890;2023-06-04T11:29:00;30.80;38.80
41557;DHT22;27720;51.992;5.890;2023-06-04T11:31:27;30.80;38.80
41557;DHT22;27720;51.992;5.890;2023-06-04T11:33:53;30.90;38.60
41557;DHT22;27720;51.992;5.890;2023-06-04T11:36:29;31.10;38.40
41557;DHT22;27720;51.992;5.890;2023-06-04T11:38:59;31.40;38.20
41557;DHT22;27720;51.992;5.890;2023-06-04T11:41:30;31.50;37.80
41557;DHT22;27720;51.992;5.890;2023-06-04T11:43:56;31.50;37.50
41557;DHT22;27720;51.992;5.890;2023-06-04T11:46:23;31.50;37.40
41557;DHT22;27720;51.992;5.890;2023-06-04T11:48:52;31.50;37.20
41557;DHT22;27720;51.992;5.890;2023-06-04T11:51:20;31.50;37.20
41557;DHT22;27720;51.992;5.890;2023-06-04T11:53:47;31.50;37.10
41557;DHT22;27720;51.992;5.890;2023-06-04T11:56:13;31.50;37.30
41557;DHT22;27720;51.992;5.890;2023-06-04T11:58:42;31.70;37.40
41557;DHT22;27720;51.992;5.890;2023-06-04T12:01:08;31.90;37.10
41557;DHT22;27720;51.992;5.890;2023-06-04T12:03:43;31.90;36.50
41557;DHT22;27720;51.992;5.890;2023-06-04T12:06:16;31.90;36.30
41557;DHT22;27720;51.992;5.890;2023-06-04T12:08:58;31.90;36.30
41557;DHT22;27720;51.992;5.890;2023-06-04T12:11:57;31.90;36.70
41557;DHT22;27720;51.992;5.890;2023-06-04T12:14:22;31.90;36.90
41557;DHT22;27720;51.992;5.890;2023-06-04T12:16:56;32.00;36.80
41557;DHT22;27720;51.992;5.890;2023-06-04T12:19:22;32.10;36.80
41557;DHT22;27720;51.992;5.890;2023-06-04T12:22:05;32.10;36.70
41557;DHT22;27720;51.992;5.890;2023-06-04T12:24:46;32.20;36.50
41557;DHT22;27720;51.992;5.890;2023-06-04T12:27:11;32.30;36.70
41557;DHT22;27720;51.992;5.890;2023-06-04T12:29:37;32.20;36.50
41557;DHT22;27720;51.992;5.890;2023-06-04T12:32:08;32.20;36.40
41557;DHT22;27720;51.992;5.890;2023-06-04T12:34:39;32.10;36.40
41557;DHT22;27720;51.992;5.890;2023-06-04T12:37:06;32.00;36.30
41557;DHT22;27720;51.992;5.890;2023-06-04T12:39:32;31.90;36.10
41557;DHT22;27720;51.992;5.890;2023-06-04T12:41:58;31.90;36.20
41557;DHT22;27720;51.992;5.890;2023-06-04T12:44:24;32.10;36.40
41557;DHT22;27720;51.992;5.890;2023-06-04T12:46:50;32.10;36.20
41557;DHT22;27720;51.992;5.890;2023-06-04T12:49:16;32.10;36.10
41557;DHT22;27720;51.992;5.890;2023-06-04T12:51:41;32.20;36.00
41557;DHT22;27720;51.992;5.890;2023-06-04T12:54:09;32.20;36.10
41557;DHT22;27720;51.992;5.890;2023-06-04T12:56:35;32.30;36.30
41557;DHT22;27720;51.992;5.890;2023-06-04T12:59:01;32.40;36.30
41557;DHT22;27720;51.992;5.890;2023-06-04T13:01:27;32.50;36.60
41557;DHT22;27720;51.992;5.890;2023-06-04T13:03:53;32.50;36.50
41557;DHT22;27720;51.992;5.890;2023-06-04T13:06:20;32.50;36.30
41557;DHT22;27720;51.992;5.890;2023-06-04T13:08:46;32.60;36.40
41557;DHT22;27720;51.992;5.890;2023-06-04T13:11:12;32.70;36.20
41557;DHT22;27720;51.992;5.890;2023-06-04T13:13:38;32.90;36.00
41557;DHT22;27720;51.992;5.890;2023-06-04T13:16:04;33.00;36.10
41557;DHT22;27720;51.992;5.890;2023-06-04T13:18:30;33.20;36.30
41557;DHT22;27720;51.992;5.890;2023-06-04T13:20:55;33.20;35.70
41557;DHT22;27720;51.992;5.890;2023-06-04T13:23:22;33.20;35.60
41557;DHT22;27720;51.992;5.890;2023-06-04T13:25:48;33.20;35.80
41557;DHT22;27720;51.992;5.890;2023-06-04T13:28:14;33.20;35.60
41557;DHT22;27720;51.992;5.890;2023-06-04T13:30:40;33.20;35.90
41557;DHT22;27720;51.992;5.890;2023-06-04T13:33:06;33.20;36.20
41557;DHT22;27720;51.992;5.890;2023-06-04T13:35:33;33.20;35.90
41557;DHT22;27720;51.992;5.890;2023-06-04T13:37:59;33.30;36.00
41557;DHT22;27720;51.992;5.890;2023-06-04T13:40:24;33.30;35.60
41557;DHT22;27720;51.992;5.890;2023-06-04T13:42:50;33.30;36.00
41557;DHT22;27720;51.992;5.890;2023-06-04T13:45:16;33.30;35.60
41557;DHT22;27720;51.992;5.890;2023-06-04T13:47:42;33.20;35.80
41557;DHT22;27720;51.992;5.890;2023-06-04T13:50:09;33.20;35.70
41557;DHT22;27720;51.992;5.890;2023-06-04T13:52:34;33.20;35.50
41557;DHT22;27720;51.992;5.890;2023-06-04T13:55:00;33.30;35.60
41557;DHT22;27720;51.992;5.890;2023-06-04T13:57:28;33.30;35.80
41557;DHT22;27720;51.992;5.890;2023-06-04T13:59:53;33.30;35.80
41557;DHT22;27720;51.992;5.890;2023-06-04T14:02:19;33.30;35.90
41557;DHT22;27720;51.992;5.890;2023-06-04T14:04:47;33.30;35.80
41557;DHT22;27720;51.992;5.890;2023-06-04T14:07:13;33.30;35.80
41557;DHT22;27720;51.992;5.890;2023-06-04T14:09:39;33.40;36.30
41557;DHT22;27720;51.992;5.890;2023-06-04T14:12:05;33.40;35.50
41557;DHT22;27720;51.992;5.890;2023-06-04T14:14:31;33.40;35.50
41557;DHT22;27720;51.992;5.890;2023-06-04T14:17:02;33.40;35.60
41557;DHT22;27720;51.992;5.890;2023-06-04T14:19:27;33.40;35.80
41557;DHT22;27720;51.992;5.890;2023-06-04T14:21:53;33.40;35.80
41557;DHT22;27720;51.992;5.890;2023-06-04T14:24:20;33.30;35.70
41557;DHT22;27720;51.992;5.890;2023-06-04T14:26:45;33.30;35.80
41557;DHT22;27720;51.992;5.890;2023-06-04T14:29:11;33.20;35.80
41557;DHT22;27720;51.992;5.890;2023-06-04T14:31:37;33.20;35.60
41557;DHT22;27720;51.992;5.890;2023-06-04T14:34:03;33.00;35.70
41557;DHT22;27720;51.992;5.890;2023-06-04T14:36:29;33.10;35.90
41557;DHT22;27720;51.992;5.890;2023-06-04T14:38:55;33.10;35.90
41557;DHT22;27720;51.992;5.890;2023-06-04T14:44:02;33.00;35.80
41557;DHT22;27720;51.992;5.890;2023-06-04T14:46:30;33.00;35.70
41557;DHT22;27720;51.992;5.890;2023-06-04T14:57:18;33.20;35.40
41557;DHT22;27720;51.992;5.890;2023-06-04T14:59:45;33.10;35.60
41557;DHT22;27720;51.992;5.890;2023-06-04T15:02:11;33.20;35.90
41557;DHT22;27720;51.992;5.890;2023-06-04T15:04:37;33.30;35.70
41557;DHT22;27720;51.992;5.890;2023-06-04T15:07:03;33.30;35.50
41557;DHT22;27720;51.992;5.890;2023-06-04T15:09:29;33.30;35.50
41557;DHT22;27720;51.992;5.890;2023-06-04T15:11:55;33.30;35.80
41557;DHT22;27720;51.992;5.890;2023-06-04T15:14:21;33.40;35.80
41557;DHT22;27720;51.992;5.890;2023-06-04T15:16:46;33.40;35.80
41557;DHT22;27720;51.992;5.890;2023-06-04T15:19:12;33.40;35.50
41557;DHT22;27720;51.992;5.890;2023-06-04T15:21:38;33.30;35.50
41557;DHT22;27720;51.992;5.890;2023-06-04T15:24:04;33.30;35.60
41557;DHT22;27720;51.992;5.890;2023-06-04T15:26:30;33.40;35.70
41557;DHT22;27720;51.992;5.890;2023-06-04T15:28:55;33.40;35.80
41557;DHT22;27720;51.992;5.890;2023-06-04T15:31:21;33.40;35.80
41557;DHT22;27720;51.992;5.890;2023-06-04T15:33:47;33.40;35.80
41557;DHT22;27720;51.992;5.890;2023-06-04T15:36:13;33.40;35.60
41557;DHT22;27720;51.992;5.890;2023-06-04T15:38:39;33.30;35.70
41557;DHT22;27720;51.992;5.890;2023-06-04T15:41:04;33.20;36.00
41557;DHT22;27720;51.992;5.890;2023-06-04T15:43:30;33.20;35.70
41557;DHT22;27720;51.992;5.890;2023-06-04T15:45:56;33.10;35.70
41557;DHT22;27720;51.992;5.890;2023-06-04T15:48:22;33.00;35.90
41557;DHT22;27720;51.992;5.890;2023-06-04T15:50:48;32.90;35.70
41557;DHT22;27720;51.992;5.890;2023-06-04T15:53:15;32.90;35.70
41557;DHT22;27720;51.992;5.890;2023-06-04T15:55:40;32.80;35.50